createdAt,value
2022-09-01T08:50:15.236Z,17.50
2022-09-01T08:55:22.223Z,17.40
2022-09-01T09:00:30.411Z,17.50
2022-09-01T09:05:32.117Z,17.60
2022-09-01T09:10:49.647Z,17.70
2022-09-01T09:15:51.648Z,17.80
2022-09-01T09:20:53.770Z,18.00
2022-09-01T09:25:56.825Z,18.10
2022-09-01T09:31:33.940Z,18.30
2022-09-01T09:36:37.471Z,18.40
2022-09-01T09:41:40.989Z,18.70
2022-09-01T09:46:47.445Z,19.00
2022-09-01T09:51:52.214Z,19.20
2022-09-01T09:57:09.264Z,19.10
2022-09-01T10:02:27.978Z,19.40
2022-09-01T10:07:36.793Z,19.60
2022-09-01T10:12:38.536Z,19.50
2022-09-01T10:17:44.126Z,19.80
2022-09-01T10:22:48.534Z,20.00
2022-09-01T10:27:58.376Z,20.10
2022-09-01T10:33:11.036Z,20.40
2022-09-01T10:38:29.411Z,20.60
2022-09-01T10:43:41.492Z,20.50
2022-09-01T10:48:52.041Z,20.80
2022-09-01T10:54:02.165Z,21.40
2022-09-01T10:59:37.385Z,21.60
2022-09-01T11:04:40.974Z,22.10
2022-09-01T11:10:11.765Z,22.20
2022-09-01T11:15:17.014Z,21.90
2022-09-01T11:20:34.786Z,21.90
2022-09-01T11:31:22.822Z,21.60
2022-09-01T11:36:35.067Z,22.00
2022-09-01T11:41:39.747Z,21.80
2022-09-01T11:46:45.714Z,22.20
2022-09-01T11:51:48.531Z,22.60
2022-09-01T11:56:50.362Z,22.40
2022-09-01T12:01:58.201Z,22.10
2022-09-01T12:07:10.859Z,22.60
2022-09-01T12:12:35.954Z,22.80
2022-09-01T12:17:37.889Z,22.70
2022-09-01T12:22:43.473Z,22.50
2022-09-01T12:27:45.287Z,22.70
2022-09-01T12:32:47.515Z,22.60
2022-09-01T12:37:50.433Z,22.80
2022-09-01T12:42:53.614Z,22.90
2022-09-01T12:47:55.338Z,23.00
2022-09-01T12:53:00.071Z,22.90
2022-09-01T12:58:07.676Z,22.50
2022-09-01T13:03:15.570Z,22.50
2022-09-01T13:08:19.881Z,22.60
2022-09-01T13:13:24.229Z,23.30
2022-09-01T13:18:27.124Z,23.80
2022-09-01T13:23:28.853Z,24.10
2022-09-01T13:28:31.987Z,24.20
2022-09-01T13:34:09.269Z,24.30
2022-09-01T13:38:57.384Z,24.50
2022-09-01T13:43:59.505Z,24.20
2022-09-01T13:49:04.366Z,23.80
2022-09-01T13:54:06.639Z,24.20
2022-09-01T13:59:08.352Z,23.90
2022-09-01T14:04:10.392Z,24.00
2022-09-01T14:09:17.693Z,24.10
2022-09-01T14:14:19.589Z,23.70
2022-09-01T14:19:21.331Z,23.90
2022-09-01T14:24:23.196Z,23.70
2022-09-01T14:29:25.501Z,23.50
2022-09-01T14:34:27.249Z,23.90
2022-09-01T14:39:30.854Z,24.10
2022-09-01T14:44:34.485Z,24.00
2022-09-01T14:49:37.011Z,24.20
2022-09-01T14:54:40.454Z,24.20
2022-09-01T14:59:42.213Z,23.90
2022-09-01T15:04:44.042Z,23.50
2022-09-01T15:09:45.771Z,23.80
2022-09-01T15:14:47.499Z,24.40
2022-09-01T15:19:49.255Z,24.40
2022-09-01T15:24:51.042Z,24.50
2022-09-01T15:29:52.761Z,25.30
2022-09-01T15:34:56.208Z,25.60
2022-09-01T15:39:57.890Z,25.10
2022-09-01T15:44:59.964Z,24.80
2022-09-01T15:50:05.259Z,24.90
2022-09-01T15:55:07.392Z,24.90
2022-09-01T16:00:11.283Z,25.00
2022-09-01T16:05:14.062Z,25.10
2022-09-01T16:10:15.786Z,25.10
2022-09-01T16:15:20.533Z,25.20
2022-09-01T16:20:30.283Z,25.00
2022-09-01T16:25:34.707Z,24.50
2022-09-01T16:30:36.847Z,24.20
2022-09-01T16:35:50.837Z,23.80
2022-09-01T16:41:43.986Z,23.70
2022-09-01T16:47:18.377Z,23.70
2022-09-01T16:52:28.999Z,23.50
2022-09-01T16:57:46.102Z,23.30
2022-09-01T17:02:58.242Z,23.00
2022-09-01T17:08:12.784Z,23.10
2022-09-01T17:13:20.349Z,22.90
2022-09-01T17:18:33.815Z,22.80
2022-09-01T17:23:41.792Z,22.80
2022-09-01T17:28:51.953Z,22.60
2022-09-01T17:34:11.075Z,22.50
2022-09-01T17:39:27.580Z,22.10
2022-09-01T17:44:47.039Z,21.80
2022-09-01T17:50:05.787Z,21.50
2022-09-01T17:55:22.424Z,21.20
2022-09-01T18:00:51.089Z,20.90
2022-09-01T18:05:52.807Z,20.70
2022-09-01T18:11:16.401Z,20.50
2022-09-01T18:16:25.429Z,20.30
2022-09-01T18:21:40.077Z,20.20
2022-09-01T18:26:47.651Z,20.10
2022-09-01T18:32:17.914Z,19.90
2022-09-01T18:37:32.189Z,19.70
2022-09-01T18:43:03.519Z,19.50
2022-09-01T18:48:17.266Z,19.40
2022-09-01T18:53:28.978Z,19.30
2022-09-01T18:59:01.648Z,19.20
2022-09-01T19:04:22.156Z,19.10
2022-09-01T19:09:28.671Z,19.10
2022-09-01T19:14:48.658Z,18.90
2022-09-01T19:19:57.671Z,18.80
2022-09-01T19:25:28.039Z,18.70
2022-09-01T19:30:35.362Z,18.50
2022-09-01T19:35:40.393Z,18.40
2022-09-01T19:40:45.127Z,18.30
2022-09-01T19:46:01.311Z,18.20
2022-09-01T19:51:17.525Z,18.10
2022-09-01T19:56:29.347Z,18.00
2022-09-01T20:01:59.056Z,17.90
2022-09-01T20:07:01.945Z,17.80
2022-09-01T20:12:22.325Z,17.80
2022-09-01T20:17:47.836Z,17.70
2022-09-01T20:23:01.582Z,17.60
2022-09-01T20:28:05.630Z,17.40
2022-09-01T20:33:36.624Z,17.30
2022-09-01T20:39:19.213Z,17.20
2022-09-01T20:44:49.385Z,17.00
2022-09-01T20:49:51.182Z,17.00
2022-09-01T20:54:55.537Z,17.00
2022-09-01T21:00:25.974Z,16.90
2022-09-01T21:05:41.167Z,16.80
2022-09-01T21:11:01.179Z,16.60
2022-09-01T21:16:18.920Z,16.50
2022-09-01T21:21:20.692Z,16.40
2022-09-01T21:26:22.901Z,16.40
2022-09-01T21:31:24.939Z,16.30
2022-09-01T21:36:26.880Z,16.20
2022-09-01T21:41:28.621Z,16.10
2022-09-01T21:46:30.907Z,16.10
2022-09-01T21:51:32.748Z,16.00
2022-09-01T21:56:35.098Z,15.90
2022-09-01T22:01:37.049Z,15.80
2022-09-01T22:06:40.225Z,15.80
2022-09-01T22:11:42.522Z,15.70
2022-09-01T22:16:44.669Z,15.70
2022-09-01T22:21:46.781Z,15.60
2022-09-01T22:26:48.673Z,15.60
2022-09-01T22:31:50.661Z,15.40
2022-09-01T22:36:52.484Z,15.40
2022-09-01T22:41:54.919Z,15.40
2022-09-01T22:46:57.062Z,15.30
2022-09-01T22:51:58.722Z,15.20
2022-09-01T22:57:02.231Z,15.20
2022-09-01T23:02:04.066Z,15.10
2022-09-01T23:07:07.132Z,15.10
2022-09-01T23:12:09.185Z,15.00
2022-09-01T23:17:10.931Z,14.90
2022-09-01T23:22:12.981Z,14.90
2022-09-01T23:27:14.703Z,14.90
2022-09-01T23:32:16.476Z,14.80
2022-09-01T23:37:18.208Z,14.80
2022-09-01T23:42:23.250Z,14.70
2022-09-01T23:47:25.067Z,14.60
2022-09-01T23:52:26.896Z,14.60
2022-09-01T23:57:28.608Z,14.50
